Time;durP1;ratioP1;P1;durP2;ratioP2;P2;SDS_P1;SDS_P2;PMS_P1;PMS_P2;Temp;Humidity;BMP_temperature;BMP_pressure;BME280_temperature;BME280_humidity;BME280_pressure;Samples;Min_cycle;Max_cycle;Signal;HPM_P1;HPM_P2
2023/04/09 00:00:34;;;;;;;25.52;12.82;;;;;;;7.48;53.87;100221.38;7343906;19;20346;-66
2023/04/09 00:02:58;;;;;;;17.67;10.95;;;;;;;7.52;53.60;100215.00;7342589;19;20018;-70
2023/04/09 00:05:23;;;;;;;20.63;12.20;;;;;;;7.39;54.55;100226.28;7346112;19;20034;-69
2023/04/09 00:07:48;;;;;;;20.95;11.57;;;;;;;7.39;54.19;100216.53;7346393;19;20019;-67
2023/04/09 00:10:12;;;;;;;17.42;12.25;;;;;;;7.43;54.28;100226.06;7344406;19;20026;-67
2023/04/09 00:12:37;;;;;;;20.77;12.77;;;;;;;7.37;54.42;100220.19;7342366;19;20042;-72
2023/04/09 00:15:02;;;;;;;21.40;13.73;;;;;;;7.32;54.70;100219.56;7348311;19;20049;-68
2023/04/09 00:17:28;;;;;;;18.52;11.52;;;;;;;7.32;54.36;100225.72;7345894;19;20037;-66
2023/04/09 00:19:52;;;;;;;17.95;12.15;;;;;;;7.43;54.10;100227.84;7346216;19;20011;-70
2023/04/09 00:22:17;;;;;;;24.25;12.52;;;;;;;7.37;54.31;100218.38;7345498;19;20334;-70
2023/04/09 00:24:42;;;;;;;19.40;12.45;;;;;;;7.37;54.59;100218.38;7349716;19;20014;-70
2023/04/09 00:27:06;;;;;;;16.13;10.70;;;;;;;7.35;54.27;100222.03;7344753;19;20023;-68
2023/04/09 00:29:31;;;;;;;22.50;11.23;;;;;;;7.23;55.05;100219.06;7343737;19;20022;-68
2023/04/09 00:31:57;;;;;;;18.05;10.15;;;;;;;7.47;54.17;100224.09;7342695;19;20371;-66
2023/04/09 00:34:22;;;;;;;18.23;10.77;;;;;;;7.43;54.27;100228.72;7340437;19;20031;-67
2023/04/09 00:36:46;;;;;;;17.90;9.75;;;;;;;7.56;53.92;100221.84;7343510;19;20010;-68
2023/04/09 00:39:11;;;;;;;19.58;10.75;;;;;;;7.39;54.55;100227.13;7345521;19;20010;-69
2023/04/09 00:41:35;;;;;;;16.55;11.02;;;;;;;7.44;54.43;100216.31;7342149;19;20070;-66
2023/04/09 00:44:00;;;;;;;21.10;11.15;;;;;;;7.51;54.01;100215.91;7347745;19;20010;-66
2023/04/09 00:46:33;;;;;;;19.42;11.10;;;;;;;7.45;54.36;100226.00;7340593;19;20014;-65
2023/04/09 00:48:59;;;;;;;20.40;11.82;;;;;;;7.38;54.57;100222.75;7341929;19;20011;-64
2023/04/09 00:51:25;;;;;;;21.85;12.15;;;;;;;7.28;54.79;100217.06;7341057;19;20051;-64
2023/04/09 00:53:49;;;;;;;19.38;10.98;;;;;;;7.29;54.92;100215.25;7346074;19;20135;-66
2023/04/09 00:56:16;;;;;;;17.88;10.60;;;;;;;7.34;54.69;100228.28;7344453;19;20018;-65
2023/04/09 00:58:41;;;;;;;16.27;9.65;;;;;;;7.23;55.03;100223.50;7344736;19;20074;-65
2023/04/09 01:01:05;;;;;;;17.50;11.82;;;;;;;7.22;55.27;100227.13;7343246;19;20014;-66
2023/04/09 01:03:30;;;;;;;21.67;10.27;;;;;;;7.29;55.00;100223.22;7345025;19;20351;-65
2023/04/09 01:06:19;;;;;;;19.52;10.65;;;;;;;7.36;54.94;100221.13;7345204;19;20035;-65
2023/04/09 01:09:07;;;;;;;19.80;10.45;;;;;;;7.41;54.48;100221.75;7344216;19;20018;-64
2023/04/09 01:11:42;;;;;;;13.02;6.93;;;;;;;7.44;54.24;100217.19;7349603;19;20026;-66
2023/04/09 01:14:49;;;;;;;15.25;9.63;;;;;;;7.54;54.18;100220.22;7348693;19;20014;-65
2023/04/09 01:17:51;;;;;;;19.98;9.60;;;;;;;7.42;54.36;100220.84;7347450;19;20018;-66
2023/04/09 01:20:32;;;;;;;20.30;11.55;;;;;;;7.44;54.58;100217.19;7343272;19;20811;-68
2023/04/09 01:23:18;;;;;;;15.95;9.40;;;;;;;7.54;54.31;100222.88;7344721;19;20018;-67
2023/04/09 01:25:58;;;;;;;14.20;9.82;;;;;;;7.37;54.91;100223.69;7344484;19;20019;-66
2023/04/09 01:28:29;;;;;;;21.17;11.18;;;;;;;7.32;55.11;100219.56;7339622;19;20021;-63
2023/04/09 01:31:01;;;;;;;11.43;7.32;;;;;;;7.31;55.06;100224.00;7341780;19;20116;-63
2023/04/09 01:33:29;;;;;;;18.88;11.13;;;;;;;7.23;55.31;100218.19;7339795;19;20331;-66
2023/04/09 01:35:56;;;;;;;20.17;11.45;;;;;;;7.24;55.22;100223.44;7343104;19;20021;-67
2023/04/09 01:38:21;;;;;;;21.05;12.15;;;;;;;7.15;55.48;100218.56;7339141;19;20021;-68
2023/04/09 01:40:48;;;;;;;23.17;11.98;;;;;;;7.26;55.42;100224.22;7341008;19;20039;-65
2023/04/09 01:43:14;;;;;;;22.17;13.43;;;;;;;7.18;55.81;100223.75;7340270;19;20020;-70
2023/04/09 01:45:39;;;;;;;20.83;11.73;;;;;;;7.24;55.51;100222.56;7343694;19;20014;-69
2023/04/09 01:48:04;;;;;;;16.70;10.60;;;;;;;7.34;55.29;100223.84;7339479;19;20030;-66
2023/04/09 01:50:30;;;;;;;23.27;12.32;;;;;;;7.25;55.81;100235.75;7339821;19;20025;-66
2023/04/09 01:52:55;;;;;;;16.90;11.60;;;;;;;7.21;55.86;100231.56;7340943;19;20026;-68
2023/04/09 01:55:19;;;;;;;16.13;10.27;;;;;;;7.28;55.61;100222.34;7339986;19;20094;-66
2023/04/09 01:57:45;;;;;;;21.23;12.48;;;;;;;7.26;55.70;100232.19;7339035;19;20018;-65
2023/04/09 02:00:11;;;;;;;20.40;11.80;;;;;;;7.24;55.93;100238.47;7339038;19;20010;-68
2023/04/09 02:02:49;;;;;;;21.42;12.45;;;;;;;7.28;55.94;100226.81;7344767;19;20018;-66
2023/04/09 02:05:17;;;;;;;22.75;13.65;;;;;;;7.32;55.66;100244.31;7338714;19;20022;-65
2023/04/09 02:07:51;;;;;;;18.90;11.77;;;;;;;7.28;56.01;100229.47;7340793;19;20018;-68
2023/04/09 02:10:18;;;;;;;19.30;11.77;;;;;;;7.37;55.65;100234.31;7343529;19;20097;-72
2023/04/09 02:12:48;;;;;;;23.20;11.60;;;;;;;7.33;55.94;100224.81;7339501;19;20073;-70
2023/04/09 02:15:15;;;;;;;22.63;12.77;;;;;;;7.25;56.21;100225.16;7340540;19;20010;-73
2023/04/09 02:17:41;;;;;;;17.90;11.07;;;;;;;7.43;55.72;100223.41;7340564;19;20030;-70
2023/04/09 02:20:07;;;;;;;17.15;11.30;;;;;;;7.37;55.69;100226.34;7345557;19;20089;-72
2023/04/09 02:22:31;;;;;;;27.77;13.43;;;;;;;7.30;55.78;100224.94;7340776;19;20011;-72
2023/04/09 02:24:57;;;;;;;23.80;13.93;;;;;;;7.23;56.30;100219.06;7341231;19;20445;-69
2023/04/09 02:27:21;;;;;;;25.35;13.07;;;;;;;7.18;56.61;100228.19;7343101;19;20400;-72
2023/04/09 02:29:46;;;;;;;18.02;12.98;;;;;;;7.12;56.62;100218.72;7344602;19;20525;-72
2023/04/09 02:32:11;;;;;;;20.98;12.77;;;;;;;7.15;56.66;100223.03;7341115;19;20494;-69
2023/04/09 02:34:35;;;;;;;20.92;11.07;;;;;;;7.20;56.16;100228.97;7340302;19;20010;-71
2023/04/09 02:37:00;;;;;;;19.63;10.98;;;;;;;7.19;56.56;100229.91;7339015;19;20025;-69
2023/04/09 02:39:26;;;;;;;20.70;13.18;;;;;;;7.12;56.92;100223.16;7344177;19;20021;-69
2023/04/09 02:41:51;;;;;;;23.83;12.80;;;;;;;7.11;56.93;100237.38;7339084;19;20029;-70
2023/04/09 02:44:15;;;;;;;23.98;14.15;;;;;;;7.12;57.02;100224.03;7339906;19;20031;-70
2023/04/09 02:46:41;;;;;;;24.67;13.35;;;;;;;7.09;56.91;100226.84;7338446;19;20006;-70
2023/04/09 02:49:05;;;;;;;21.63;12.15;;;;;;;7.13;56.45;100220.44;7338872;19;20033;-70
2023/04/09 02:51:30;;;;;;;16.42;10.32;;;;;;;7.22;56.14;100219.16;7338370;19;20014;-69
2023/04/09 02:53:55;;;;;;;21.90;13.50;;;;;;;7.13;56.61;100216.94;7339211;19;20521;-70
2023/04/09 02:56:19;;;;;;;24.92;13.25;;;;;;;7.14;56.84;100221.31;7344890;19;20508;-70
2023/04/09 02:58:44;;;;;;;19.23;12.90;;;;;;;7.16;56.48;100219.44;7350471;19;20014;-71
2023/04/09 03:01:09;;;;;;;19.35;12.43;;;;;;;7.19;56.46;100229.91;7348333;19;20021;-70
2023/04/09 03:03:35;;;;;;;29.52;14.50;;;;;;;7.02;57.06;100216.59;7351455;19;20023;-71
2023/04/09 03:06:00;;;;;;;18.42;13.48;;;;;;;7.05;56.95;100235.00;7350362;19;20418;-70
2023/04/09 03:08:25;;;;;;;22.10;11.27;;;;;;;7.00;56.87;100229.91;7351322;19;20804;-69
2023/04/09 03:10:49;;;;;;;25.08;12.70;;;;;;;6.98;57.33;100226.50;7350034;19;20030;-70
2023/04/09 03:13:14;;;;;;;22.10;12.75;;;;;;;6.96;57.31;100224.84;7352263;19;20013;-70
2023/04/09 03:15:39;;;;;;;26.35;13.32;;;;;;;6.91;57.75;100225.91;7347574;19;20015;-70
2023/04/09 03:18:04;;;;;;;23.95;13.88;;;;;;;6.98;57.78;100236.25;7351501;19;20033;-69
2023/04/09 03:20:29;;;;;;;29.38;13.60;;;;;;;7.00;57.61;100231.72;7346122;19;20019;-70
2023/04/09 03:22:54;;;;;;;30.00;15.82;;;;;;;7.03;57.58;100234.22;7345295;19;20088;-71
2023/04/09 03:25:36;;;;;;;18.20;12.02;;;;;;;7.08;57.48;100230.41;7345428;19;20018;-70
2023/04/09 03:28:09;;;;;;;23.15;13.68;;;;;;;7.15;57.04;100228.31;7344226;19;20353;-69
2023/04/09 03:30:39;;;;;;;21.50;12.43;;;;;;;7.20;56.94;100234.28;7345942;19;20039;-69
2023/04/09 03:33:04;;;;;;;20.50;11.45;;;;;;;7.16;56.65;100228.25;7353721;19;20007;-71
2023/04/09 03:35:35;;;;;;;22.10;11.98;;;;;;;7.20;56.61;100231.63;7353490;19;20013;-71
2023/04/09 03:38:01;;;;;;;18.98;11.65;;;;;;;7.24;56.70;100233.19;7356675;19;20466;-69
2023/04/09 03:40:25;;;;;;;17.17;12.00;;;;;;;7.22;56.68;100235.06;7353393;19;20472;-69
2023/04/09 03:42:50;;;;;;;20.48;13.40;;;;;;;7.13;57.20;100235.50;7350249;19;20042;-70
2023/04/09 03:45:16;;;;;;;20.15;12.55;;;;;;;7.04;57.48;100228.84;7347425;19;20015;-70
2023/04/09 03:47:44;;;;;;;22.50;13.80;;;;;;;7.12;57.41;100231.13;7346219;19;20011;-68
2023/04/09 03:50:11;;;;;;;26.80;14.50;;;;;;;7.10;57.39;100235.66;7342215;19;20025;-68
2023/04/09 03:52:48;;;;;;;21.52;11.85;;;;;;;7.13;57.40;100238.13;7343816;19;20022;-67
2023/04/09 03:55:14;;;;;;;22.85;12.73;;;;;;;7.15;57.37;100223.03;7344779;19;20094;-68
2023/04/09 03:57:39;;;;;;;21.50;13.15;;;;;;;7.18;57.34;100231.69;7343050;19;20014;-67
2023/04/09 04:00:08;;;;;;;28.58;13.60;;;;;;;7.26;57.16;100237.47;7344923;19;20022;-67
2023/04/09 04:02:48;;;;;;;22.48;13.55;;;;;;;7.12;57.91;100236.41;7343684;19;20367;-68
2023/04/09 04:05:13;;;;;;;23.08;12.35;;;;;;;7.27;57.45;100239.19;7343508;19;20308;-69
2023/04/09 04:07:43;;;;;;;24.75;13.30;;;;;;;7.35;56.99;100230.88;7340460;19;20018;-70
2023/04/09 04:10:12;;;;;;;32.97;13.45;;;;;;;7.43;57.01;100236.69;7340095;19;20021;-71
2023/04/09 04:12:41;;;;;;;29.65;15.00;;;;;;;7.55;56.73;100233.41;7343472;19;20022;-69
2023/04/09 04:15:12;;;;;;;21.08;12.60;;;;;;;7.62;56.54;100228.66;7344293;19;20099;-72
2023/04/09 04:17:42;;;;;;;27.00;14.45;;;;;;;7.73;55.86;100222.81;7345192;19;20029;-71
2023/04/09 04:20:16;;;;;;;19.77;13.00;;;;;;;8.01;55.17;100231.09;7345605;19;20026;-72
2023/04/09 04:23:10;;;;;;;25.95;13.48;;;;;;;7.93;55.49;100227.94;7344048;19;20403;-73
2023/04/09 04:25:42;;;;;;;21.50;12.98;;;;;;;8.06;55.19;100231.69;7344390;19;20039;-67
2023/04/09 04:28:10;;;;;;;27.15;14.45;;;;;;;8.16;55.11;100222.31;7341574;19;20025;-71
2023/04/09 04:30:41;;;;;;;22.25;13.90;;;;;;;8.23;54.83;100231.69;7341932;19;20075;-74
2023/04/09 04:33:06;;;;;;;21.98;14.75;;;;;;;8.17;54.85;100226.69;7342768;19;20017;-68
2023/04/09 04:35:38;;;;;;;21.85;13.40;;;;;;;8.23;54.92;100222.88;7346069;19;20058;-79
2023/04/09 04:38:06;;;;;;;20.17;12.60;;;;;;;8.34;54.36;100229.38;7347475;19;20125;-76
2023/04/09 04:40:34;;;;;;;26.52;16.48;;;;;;;8.21;54.94;100209.66;7344482;19;20011;-76
2023/04/09 04:42:59;;;;;;;27.83;14.18;;;;;;;8.33;54.65;100222.34;7346035;19;20021;-74
2023/04/09 04:45:25;;;;;;;18.48;12.55;;;;;;;8.54;54.60;100225.63;7343347;19;20065;-76
2023/04/09 04:47:55;;;;;;;20.35;12.30;;;;;;;8.74;54.00;100224.53;7345678;19;20021;-79
2023/04/09 04:50:19;;;;;;;25.13;12.77;;;;;;;8.99;52.93;100214.28;7346352;19;20010;-77
2023/04/09 04:52:53;;;;;;;19.80;11.97;;;;;;;9.14;52.56;100203.72;7346317;19;20122;-72
2023/04/09 04:55:21;;;;;;;24.38;14.23;;;;;;;9.31;52.43;100216.91;7341351;19;20032;-73
2023/04/09 04:57:49;;;;;;;23.90;15.00;;;;;;;9.46;52.29;100229.34;7339935;19;20010;-74
2023/04/09 05:00:14;;;;;;;20.60;12.70;;;;;;;9.70;51.47;100214.63;7342640;19;20014;-75
2023/04/09 05:02:39;;;;;;;23.27;13.23;;;;;;;9.64;51.67;100206.97;7343363;19;20541;-79
2023/04/09 05:05:22;;;;;;;24.63;13.43;;;;;;;9.88;51.16;100217.13;7350236;19;20014;-81
2023/04/09 05:07:52;;;;;;;22.75;13.35;;;;;;;10.03;50.80;100210.91;7345881;19;20019;-79
2023/04/09 05:10:18;;;;;;;29.38;13.93;;;;;;;10.30;50.25;100219.91;7344407;19;20014;-78
2023/04/09 05:12:44;;;;;;;30.35;14.35;;;;;;;10.81;49.47;100220.28;7346525;19;20019;-78
2023/04/09 05:15:11;;;;;;;21.80;13.60;;;;;;;11.28;48.39;100211.91;7360942;19;19998;-78
2023/04/09 05:17:36;;;;;;;31.30;13.82;;;;;;;11.76;47.18;100209.63;7363641;19;20609;-78
2023/04/09 05:20:02;;;;;;;28.05;15.32;;;;;;;11.99;46.44;100215.13;7365145;19;20679;-77
2023/04/09 05:22:39;;;;;;;25.50;13.63;;;;;;;12.58;45.53;100211.94;7350694;19;20011;-78
2023/04/09 05:25:06;;;;;;;34.65;15.45;;;;;;;12.99;44.18;100198.25;7347270;19;20010;-78
2023/04/09 05:27:38;;;;;;;37.13;14.40;;;;;;;13.40;43.58;100206.84;7348038;19;20327;-77
2023/04/09 05:30:06;;;;;;;24.90;14.18;;;;;;;13.99;42.51;100211.34;7344145;19;20082;-79
2023/04/09 05:32:31;;;;;;;20.05;14.10;;;;;;;14.56;41.10;100205.97;7346311;19;20022;-78
2023/04/09 05:34:56;;;;;;;25.98;13.43;;;;;;;14.53;40.66;100204.41;7349423;19;20006;-78
2023/04/09 05:37:22;;;;;;;21.63;14.18;;;;;;;14.05;41.02;100214.41;7345738;19;20006;-77
2023/04/09 05:39:49;;;;;;;20.55;13.05;;;;;;;13.69;41.78;100211.81;7342531;19;20034;-77
2023/04/09 05:42:14;;;;;;;22.23;13.07;;;;;;;13.81;41.63;100214.44;7342238;19;20011;-77
2023/04/09 05:44:50;;;;;;;22.40;12.85;;;;;;;13.63;41.83;100225.69;7341235;19;20440;-76
2023/04/09 05:47:17;;;;;;;22.13;12.10;;;;;;;13.29;42.22;100225.53;7343521;19;20325;-77
2023/04/09 05:50:03;;;;;;;;;;;;;;;13.26;43.45;100232.91;7340712;19;20007;-75
2023/04/09 05:52:28;;;;;;;21.65;13.15;;;;;;;12.52;43.57;100223.94;7341150;19;19934;-77
2023/04/09 05:54:53;;;;;;;26.83;14.80;;;;;;;12.11;44.31;100223.25;7341376;19;20019;-77
2023/04/09 05:57:24;;;;;;;25.35;13.75;;;;;;;11.83;44.95;100233.16;7341259;19;20481;-81
2023/04/09 05:59:55;;;;;;;21.80;13.45;;;;;;;11.71;45.28;100244.63;7341552;19;20026;-80
2023/04/09 06:02:22;;;;;;;23.67;13.57;;;;;;;11.59;45.57;100238.28;7341023;19;20022;-79
2023/04/09 06:04:46;;;;;;;20.75;12.93;;;;;;;11.61;45.66;100235.53;7347929;19;20056;-78
2023/04/09 06:07:13;;;;;;;28.33;12.85;;;;;;;11.65;45.82;100239.69;7341628;19;20019;-78
2023/04/09 06:09:37;;;;;;;29.35;13.15;;;;;;;11.67;45.92;100232.44;7340432;19;20022;-78
2023/04/09 06:12:03;;;;;;;27.50;15.25;;;;;;;11.61;45.87;100238.19;7341736;19;20010;-80
2023/04/09 06:14:27;;;;;;;28.75;14.88;;;;;;;11.40;46.18;100231.59;7340811;19;20021;-81
2023/04/09 06:16:52;;;;;;;29.33;14.55;;;;;;;11.42;46.44;100238.53;7347496;19;20031;-78
2023/04/09 06:19:17;;;;;;;23.77;14.00;;;;;;;11.45;46.28;100241.00;7347801;19;20007;-81
2023/04/09 06:21:42;;;;;;;26.00;15.35;;;;;;;11.33;46.71;100243.63;7357399;19;20047;-78
2023/04/09 06:24:07;;;;;;;28.73;14.95;;;;;;;11.27;46.58;100240.41;7343865;19;20042;-76
2023/04/09 06:26:31;;;;;;;28.40;14.88;;;;;;;11.43;46.51;100234.03;7344516;19;20633;-76
2023/04/09 06:28:56;;;;;;;26.27;14.88;;;;;;;11.89;45.90;100246.09;7341860;19;20018;-77
2023/04/09 06:31:20;;;;;;;30.48;14.05;;;;;;;12.32;45.20;100245.84;7347380;19;20014;-76
2023/04/09 06:33:45;;;;;;;27.52;14.70;;;;;;;12.64;44.22;100248.97;7349875;19;20014;-76
2023/04/09 06:36:09;;;;;;;27.77;14.45;;;;;;;13.27;43.13;100242.66;7350626;19;20015;-78
2023/04/09 06:38:34;;;;;;;26.65;15.15;;;;;;;14.47;41.12;100242.44;7351322;19;20010;-76
2023/04/09 06:40:59;;;;;;;22.08;14.43;;;;;;;15.32;39.49;100239.25;7350077;19;20118;-76
2023/04/09 06:43:24;;;;;;;23.52;14.68;;;;;;;15.50;38.64;100235.91;7350857;19;20010;-79
2023/04/09 06:45:52;;;;;;;30.10;14.98;;;;;;;15.60;38.50;100242.25;7353366;19;20018;-78
2023/04/09 06:48:16;;;;;;;23.65;14.68;;;;;;;15.49;38.56;100247.63;7357307;19;20023;-76
2023/04/09 06:50:41;;;;;;;29.42;14.77;;;;;;;15.14;38.86;100239.75;7358458;19;20022;-76
2023/04/09 06:53:06;;;;;;;27.13;13.85;;;;;;;14.88;39.38;100241.00;7353411;19;20350;-76
2023/04/09 06:55:30;;;;;;;28.55;15.50;;;;;;;14.65;39.98;100253.56;7348521;19;20368;-75
2023/04/09 06:57:55;;;;;;;26.83;14.52;;;;;;;14.67;39.93;100250.78;7350499;19;20013;-75
2023/04/09 07:00:21;;;;;;;30.17;15.15;;;;;;;14.71;39.79;100231.59;7350229;19;20002;-76
2023/04/09 07:02:46;;;;;;;24.00;14.52;;;;;;;14.75;39.98;100238.44;7349765;19;20391;-77
2023/04/09 07:05:12;;;;;;;24.17;14.90;;;;;;;15.00;39.88;100248.09;7347747;19;20010;-78
2023/04/09 07:07:36;;;;;;;45.15;15.73;;;;;;;15.20;39.53;100244.63;7353977;19;20023;-78
2023/04/09 07:10:01;;;;;;;27.02;14.80;;;;;;;15.36;38.78;100249.59;7346695;19;20082;-78
2023/04/09 07:12:30;;;;;;;20.88;12.90;;;;;;;15.59;38.63;100245.06;7347761;19;20082;-76
2023/04/09 07:15:04;;;;;;;22.92;13.48;;;;;;;15.57;38.52;100247.91;7348701;19;20014;-77
2023/04/09 07:17:33;;;;;;;28.98;14.38;;;;;;;15.58;37.93;100254.94;7349882;19;20108;-76
2023/04/09 07:19:57;;;;;;;18.75;13.27;;;;;;;15.59;38.06;100250.44;7350494;19;20026;-76
2023/04/09 07:22:23;;;;;;;27.80;15.52;;;;;;;15.68;37.81;100255.06;7350885;19;20005;-76
2023/04/09 07:24:54;;;;;;;27.27;14.85;;;;;;;15.41;37.95;100255.47;7348862;19;20007;-77
2023/04/09 07:27:28;;;;;;;21.77;12.50;;;;;;;15.58;38.16;100260.31;7350133;19;20082;-77
2023/04/09 07:29:57;;;;;;;23.58;12.98;;;;;;;15.37;38.09;100256.69;7345211;19;20014;-75
2023/04/09 07:32:24;;;;;;;23.88;12.93;;;;;;;15.07;38.01;100261.84;7346158;19;20011;-75
2023/04/09 07:34:53;;;;;;;20.55;13.30;;;;;;;14.94;38.35;100267.34;7347901;19;20045;-78
2023/04/09 07:37:18;;;;;;;26.00;13.15;;;;;;;14.54;38.96;100261.59;7350130;19;20021;-77
2023/04/09 07:39:43;;;;;;;27.42;14.18;;;;;;;14.37;39.43;100259.31;7347506;19;20015;-74
2023/04/09 07:42:09;;;;;;;26.90;14.25;;;;;;;14.55;39.40;100259.78;7346981;19;20028;-75
2023/04/09 07:44:35;;;;;;;26.20;13.63;;;;;;;14.76;39.04;100266.13;7346935;19;20006;-75
2023/04/09 07:47:01;;;;;;;21.52;12.70;;;;;;;15.09;38.34;100263.44;7346210;19;20038;-76
2023/04/09 07:49:25;;;;;;;26.95;14.18;;;;;;;15.07;38.30;100243.06;7345911;19;20089;-75
2023/04/09 07:51:53;;;;;;;23.38;13.48;;;;;;;15.51;37.90;100247.50;7354564;19;20346;-75
2023/04/09 07:54:19;;;;;;;26.60;12.65;;;;;;;16.34;37.28;100251.22;7348183;19;20015;-76
2023/04/09 07:56:44;;;;;;;23.45;14.30;;;;;;;16.99;35.88;100241.09;7348106;19;20006;-78
2023/04/09 07:59:10;;;;;;;27.30;14.82;;;;;;;17.31;34.94;100254.38;7349470;19;20038;-78
2023/04/09 08:01:35;;;;;;;24.05;13.80;;;;;;;17.38;34.63;100255.56;7349090;19;20828;-76
2023/04/09 08:04:01;;;;;;;25.35;13.60;;;;;;;17.52;33.97;100257.84;7350071;19;20028;-77
2023/04/09 08:06:26;;;;;;;17.30;11.23;;;;;;;17.85;33.97;100255.78;7348428;19;20025;-75
2023/04/09 08:08:52;;;;;;;19.25;11.88;;;;;;;17.95;33.67;100256.63;7346572;19;20007;-79
2023/04/09 08:11:21;;;;;;;23.73;13.10;;;;;;;18.08;33.46;100254.50;7349155;19;20014;-76
2023/04/09 08:13:45;;;;;;;24.60;13.40;;;;;;;17.94;33.48;100250.41;7351170;19;20436;-79
2023/04/09 08:16:10;;;;;;;19.58;13.20;;;;;;;17.76;33.72;100247.53;7349705;19;20462;-72
2023/04/09 08:18:36;;;;;;;23.40;13.65;;;;;;;18.20;33.43;100247.97;7347986;19;20015;-75
2023/04/09 08:21:05;;;;;;;21.65;13.25;;;;;;;18.67;33.07;100242.66;7347154;19;20014;-77
2023/04/09 08:23:30;;;;;;;21.25;12.57;;;;;;;19.05;32.10;100242.53;7347389;19;20022;-78
2023/04/09 08:25:54;;;;;;;19.23;12.65;;;;;;;18.99;31.89;100231.44;7348749;19;20030;-73
2023/04/09 08:28:22;;;;;;;23.25;13.95;;;;;;;19.14;31.95;100233.50;7349319;19;20377;-74
2023/04/09 08:30:47;;;;;;;22.08;13.10;;;;;;;19.26;31.65;100234.16;7348918;19;20007;-73
2023/04/09 08:33:13;;;;;;;18.73;12.60;;;;;;;19.70;31.26;100235.19;7348941;19;20506;-75
2023/04/09 08:35:43;;;;;;;20.25;12.52;;;;;;;19.79;30.96;100222.59;7348303;19;20051;-78
2023/04/09 08:38:07;;;;;;;21.83;13.30;;;;;;;19.53;31.19;100227.88;7349026;19;20018;-75
2023/04/09 08:40:36;;;;;;;14.25;11.10;;;;;;;20.40;30.04;100227.19;7346660;19;20011;-75
2023/04/09 08:43:03;;;;;;;21.35;11.55;;;;;;;21.80;28.26;100234.78;7346082;19;20338;-73
2023/04/09 08:45:28;;;;;;;17.70;10.70;;;;;;;22.37;27.22;100226.69;7341806;19;20014;-72
2023/04/09 08:47:53;;;;;;;16.83;11.52;;;;;;;22.32;27.25;100234.53;7344819;19;20342;-75
2023/04/09 08:50:18;;;;;;;16.05;12.15;;;;;;;21.83;27.74;100220.88;7347311;19;20410;-71
2023/04/09 08:52:46;;;;;;;14.98;11.00;;;;;;;22.68;27.12;100226.84;7351218;19;20041;-75
2023/04/09 08:57:42;;;;;;;19.67;12.05;;;;;;;24.67;24.91;100224.31;7349393;19;20125;-73
2023/04/09 09:00:08;;;;;;;17.80;12.20;;;;;;;24.03;25.08;100219.25;7345924;19;20014;-75
2023/04/09 09:02:33;;;;;;;22.60;12.55;;;;;;;24.66;24.99;100217.16;7349251;19;20020;-74
2023/04/09 09:05:00;;;;;;;16.58;10.95;;;;;;;24.46;24.61;100206.78;7357487;19;20018;-72
2023/04/09 09:07:28;;;;;;;18.77;12.60;;;;;;;23.86;25.23;100215.78;7360994;19;20023;-72
2023/04/09 09:09:55;;;;;;;17.55;10.98;;;;;;;24.82;24.58;100222.44;7361451;19;20040;-72
2023/04/09 09:12:50;;;;;;;13.18;10.45;;;;;;;26.93;23.59;100216.56;7347602;19;20045;-72
2023/04/09 09:15:26;;;;;;;13.35;9.60;;;;;;;27.98;21.89;100235.31;7340017;19;20010;-72
2023/04/09 09:17:56;;;;;;;15.30;10.82;;;;;;;28.51;21.19;100226.09;7342050;19;20093;-71
2023/04/09 09:20:21;;;;;;;21.40;11.77;;;;;;;27.80;21.04;100216.72;7338453;19;20024;-73
2023/04/09 09:22:53;;;;;;;20.75;11.20;;;;;;;28.01;21.38;100212.97;7338379;19;20045;-74
2023/04/09 09:25:23;;;;;;;14.68;11.07;;;;;;;28.99;20.80;100206.66;7338463;19;20015;-75
2023/04/09 09:27:49;;;;;;;16.85;11.20;;;;;;;30.28;19.60;100195.41;7339686;19;20014;-74
2023/04/09 09:30:24;;;;;;;15.75;10.55;;;;;;;30.95;19.11;100207.50;7337632;19;20727;-77
2023/04/09 09:33:10;;;;;;;16.48;10.18;;;;;;;32.06;17.97;100199.69;7340732;19;20035;-76
2023/04/09 09:35:52;;;;;;;17.50;11.07;;;;;;;32.50;18.45;100193.94;7339923;19;20025;-74
2023/04/09 09:38:18;;;;;;;16.25;10.90;;;;;;;32.14;17.58;100186.66;7341718;19;20011;-74
2023/04/09 09:40:44;;;;;;;12.90;10.57;;;;;;;31.80;17.50;100207.53;7340576;19;20014;-76
2023/04/09 09:43:09;;;;;;;16.17;10.98;;;;;;;30.71;18.38;100191.84;7339778;19;20074;-74
2023/04/09 09:45:36;;;;;;;15.15;10.40;;;;;;;31.01;18.31;100181.81;7338998;19;20076;-74
2023/04/09 09:48:02;;;;;;;15.50;11.27;;;;;;;30.55;18.31;100185.03;7342792;19;20094;-74
2023/04/09 09:50:30;;;;;;;13.80;11.73;;;;;;;30.76;18.26;100189.28;7343952;19;20095;-76
2023/04/09 09:53:09;;;;;;;12.75;10.70;;;;;;;31.10;18.01;100187.88;7343702;19;20014;-77
2023/04/09 09:55:38;;;;;;;15.25;11.07;;;;;;;32.28;17.29;100183.44;7345538;19;20037;-78
2023/04/09 09:58:15;;;;;;;20.80;11.23;;;;;;;33.57;16.71;100183.34;7347095;19;20021;-76
2023/04/09 10:00:40;;;;;;;15.45;11.00;;;;;;;33.39;16.28;100176.91;7352027;19;20407;-77
2023/04/09 10:03:14;;;;;;;16.30;10.60;;;;;;;33.77;16.83;100183.75;7344170;19;20045;-78
2023/04/09 10:05:39;;;;;;;12.52;10.02;;;;;;;33.27;16.30;100189.09;7344664;19;20116;-76
2023/04/09 10:08:06;;;;;;;12.90;9.73;;;;;;;32.81;16.43;100180.63;7343631;19;20749;-78
2023/04/09 10:10:32;;;;;;;11.90;10.63;;;;;;;31.54;17.41;100175.63;7342676;19;20034;-76
2023/04/09 10:12:58;;;;;;;16.40;10.77;;;;;;;29.23;18.89;100175.69;7344678;19;20421;-76
2023/04/09 10:15:25;;;;;;;17.80;10.93;;;;;;;27.15;20.43;100179.81;7340466;19;20017;-77
2023/04/09 10:17:50;;;;;;;14.73;10.50;;;;;;;25.47;22.02;100178.81;7346720;19;20022;-78
2023/04/09 10:20:23;;;;;;;13.90;9.85;;;;;;;24.55;23.19;100178.41;7345982;19;20349;-77
2023/04/09 10:22:50;;;;;;;14.00;10.10;;;;;;;23.88;24.10;100185.66;7341593;19;20028;-76
2023/04/09 10:25:16;;;;;;;13.43;9.52;;;;;;;23.33;24.08;100173.06;7342451;19;20011;-77
2023/04/09 10:27:48;;;;;;;13.70;10.32;;;;;;;22.86;24.59;100174.97;7343971;19;20106;-78
2023/04/09 10:30:36;;;;;;;11.93;9.52;;;;;;;23.10;24.64;100180.31;7342839;19;20019;-76
2023/04/09 10:33:15;;;;;;;18.27;10.50;;;;;;;22.01;25.71;100178.16;7341666;19;20007;-76
2023/04/09 10:35:41;;;;;;;13.38;9.68;;;;;;;20.78;27.07;100172.56;7344073;19;20029;-76
2023/04/09 10:38:08;;;;;;;13.50;10.77;;;;;;;20.36;27.22;100167.09;7346256;19;20058;-75
2023/04/09 10:40:34;;;;;;;19.67;10.38;;;;;;;20.28;27.39;100175.13;7345183;19;20014;-75
2023/04/09 10:43:04;;;;;;;15.63;9.82;;;;;;;19.91;27.87;100184.31;7346830;19;20022;-75
2023/04/09 10:45:41;;;;;;;13.23;9.55;;;;;;;19.50;28.38;100163.31;7346358;19;20102;-77
2023/04/09 10:48:13;;;;;;;15.30;9.45;;;;;;;19.21;28.66;100169.72;7346469;19;20011;-76
2023/04/09 10:50:39;;;;;;;19.17;9.05;;;;;;;19.20;28.94;100170.72;7344245;19;20015;-77
2023/04/09 10:53:06;;;;;;;15.02;9.68;;;;;;;19.26;29.30;100169.28;7344016;19;20023;-77
2023/04/09 10:55:38;;;;;;;15.07;9.70;;;;;;;19.21;29.42;100168.88;7349750;19;20007;-77
2023/04/09 10:58:08;;;;;;;;;;;;;;;19.82;28.12;100173.56;7348659;19;20031;-77
2023/04/09 11:00:40;;;;;;;14.95;9.73;;;;;;;18.92;29.05;100170.91;7347931;19;20342;-74
2023/04/09 11:03:41;;;;;;;16.05;9.70;;;;;;;18.92;29.24;100166.34;7350020;19;20033;-78
2023/04/09 11:06:09;;;;;;;15.13;10.65;;;;;;;18.78;29.48;100173.09;7341302;19;20026;-79
2023/04/09 11:08:34;;;;;;;14.77;10.32;;;;;;;18.63;29.68;100165.63;7342685;19;20014;-76
2023/04/09 11:11:00;;;;;;;18.92;11.25;;;;;;;18.26;30.58;100170.97;7343130;19;20017;-75
2023/04/09 11:13:24;;;;;;;17.30;10.48;;;;;;;18.00;30.20;100165.34;7346123;19;20022;-75
2023/04/09 11:15:49;;;;;;;14.85;9.88;;;;;;;17.60;30.58;100162.78;7347982;19;20011;-76
2023/04/09 11:18:28;;;;;;;14.05;9.13;;;;;;;17.36;30.98;100171.28;7356268;19;20013;-76
2023/04/09 11:20:55;;;;;;;15.90;8.98;;;;;;;16.71;31.96;100175.34;7357449;19;20348;-77